sensor_id;sensor_type;location;lat;lon;timestamp;pressure;altitude;pressure_sealevel;temperature;humidity
40013;BME280;37387;42.672;23.334;2023-02-20T00:02:44;947.1;;;10.1;74.2
40013;BME280;37387;42.672;23.334;2023-02-20T00:11:44;947.1;;;10.0;76.0
40013;BME280;37387;42.672;23.334;2023-02-20T00:17:44;947.1;;;9.9;77.2
40013;BME280;37387;42.672;23.334;2023-02-20T00:28:44;947.1;;;9.8;79.8
40013;BME280;37387;42.672;23.334;2023-02-20T00:35:44;947.1;;;9.7;81.4
40013;BME280;37387;42.672;23.334;2023-02-20T00:36:44;947.1;;;9.8;81.4
40013;BME280;37387;42.672;23.334;2023-02-20T00:37:44;947.1;;;9.7;81.6
40013;BME280;37387;42.672;23.334;2023-02-20T00:45:44;947.0;;;9.6;82.8
40013;BME280;37387;42.672;23.334;2023-02-20T00:51:44;947.1;;;9.5;84.3
40013;BME280;37387;42.672;23.334;2023-02-20T00:56:44;947.2;;;9.4;84.9
40013;BME280;37387;42.672;23.334;2023-02-20T01:01:44;947.2;;;9.3;86.4
40013;BME280;37387;42.672;23.334;2023-02-20T01:04:44;947.3;;;9.2;87.6
40013;BME280;37387;42.672;23.334;2023-02-20T01:09:44;947.4;;;9.1;88.3
40013;BME280;37387;42.672;23.334;2023-02-20T01:12:44;947.4;;;9.0;89.9
40013;BME280;37387;42.672;23.334;2023-02-20T01:22:44;947.5;;;8.9;92.2
40013;BME280;37387;42.672;23.334;2023-02-20T01:25:44;947.6;;;9.0;92.4
40013;BME280;37387;42.672;23.334;2023-02-20T01:26:44;947.6;;;8.9;92.4
40013;BME280;37387;42.672;23.334;2023-02-20T01:30:44;947.7;;;9.0;92.6
40013;BME280;37387;42.672;23.334;2023-02-20T01:37:43;947.7;;;9.1;92.5
40013;BME280;37387;42.672;23.334;2023-02-20T01:42:43;947.7;;;9.2;92.7
40013;BME280;37387;42.672;23.334;2023-02-20T01:48:43;947.8;;;9.3;92.5
40013;BME280;37387;42.672;23.334;2023-02-20T01:51:44;947.8;;;9.4;92.5
40013;BME280;37387;42.672;23.334;2023-02-20T01:52:44;947.8;;;9.3;92.9
40013;BME280;37387;42.672;23.334;2023-02-20T01:55:44;947.8;;;9.4;92.9
40013;BME280;37387;42.672;23.334;2023-02-20T01:56:44;947.7;;;9.3;92.9
40013;BME280;37387;42.672;23.334;2023-02-20T01:58:44;947.7;;;9.4;93.5
40013;BME280;37387;42.672;23.334;2023-02-20T01:59:43;947.8;;;9.3;93.5
40013;BME280;37387;42.672;23.334;2023-02-20T02:00:44;947.8;;;9.4;93.7
40013;BME280;37387;42.672;23.334;2023-02-20T02:03:44;947.9;;;9.3;94.5
40013;BME280;37387;42.672;23.334;2023-02-20T02:07:43;947.9;;;9.2;95.3
40013;BME280;37387;42.672;23.334;2023-02-20T02:14:43;947.9;;;9.1;96.2
40013;BME280;37387;42.672;23.334;2023-02-20T02:18:47;947.8;;;9.0;95.5
40013;BME280;37387;42.672;23.334;2023-02-20T02:19:51;947.7;;;8.9;95.1
40013;BME280;37387;42.672;23.334;2023-02-20T02:27:52;947.8;;;8.7;94.8
40013;BME280;37387;42.672;23.334;2023-02-20T02:32:48;948.0;;;8.6;94.0
40013;BME280;37387;42.672;23.334;2023-02-20T02:39:45;948.1;;;8.4;94.7
40013;BME280;37387;42.672;23.334;2023-02-20T02:44:45;948.0;;;8.3;95.3
40013;BME280;37387;42.672;23.334;2023-02-20T02:49:45;948.0;;;8.2;95.4
40013;BME280;37387;42.672;23.334;2023-02-20T02:55:43;947.9;;;8.1;97.6
40013;BME280;37387;42.672;23.334;2023-02-20T02:56:44;947.9;;;8.2;98.0
40013;BME280;37387;42.672;23.334;2023-02-20T02:58:43;948.0;;;8.1;98.1
40013;BME280;37387;42.672;23.334;2023-02-20T03:02:45;948.1;;;8.2;97.7
40013;BME280;37387;42.672;23.334;2023-02-20T03:07:44;948.2;;;8.1;97.7
40013;BME280;37387;42.672;23.334;2023-02-20T03:19:45;948.4;;;8.0;98.7
40013;BME280;37387;42.672;23.334;2023-02-20T03:24:43;948.4;;;7.9;99.1
40013;BME280;37387;42.672;23.334;2023-02-20T03:30:44;948.5;;;7.8;100.0
40013;BME280;37387;42.672;23.334;2023-02-20T03:43:44;948.7;;;7.7;99.6
40013;BME280;37387;42.672;23.334;2023-02-20T03:44:43;948.6;;;7.8;99.4
40013;BME280;37387;42.672;23.334;2023-02-20T03:45:43;948.6;;;7.7;99.5
40013;BME280;37387;42.672;23.334;2023-02-20T03:49:44;948.6;;;7.8;99.1
40013;BME280;37387;42.672;23.334;2023-02-20T03:52:43;948.7;;;7.7;98.6
40013;BME280;37387;42.672;23.334;2023-02-20T03:59:45;948.7;;;7.6;98.5
40013;BME280;37387;42.672;23.334;2023-02-20T04:09:44;948.8;;;7.7;97.0
40013;BME280;37387;42.672;23.334;2023-02-20T04:11:44;948.7;;;7.8;95.5
40013;BME280;37387;42.672;23.334;2023-02-20T04:15:43;948.8;;;7.9;93.4
40013;BME280;37387;42.672;23.334;2023-02-20T04:21:44;948.8;;;8.0;92.6
40013;BME280;37387;42.672;23.334;2023-02-20T04:36:43;948.9;;;7.9;93.0
40013;BME280;37387;42.672;23.334;2023-02-20T04:39:43;948.9;;;7.8;94.6
40013;BME280;37387;42.672;23.334;2023-02-20T04:43:43;948.8;;;7.7;95.5
40013;BME280;37387;42.672;23.334;2023-02-20T04:47:44;948.8;;;7.6;96.0
40013;BME280;37387;42.672;23.334;2023-02-20T04:50:43;948.8;;;7.5;96.3
40013;BME280;37387;42.672;23.334;2023-02-20T04:51:43;948.9;;;7.6;96.4
40013;BME280;37387;42.672;23.334;2023-02-20T04:53:43;948.8;;;7.5;95.5
40013;BME280;37387;42.672;23.334;2023-02-20T05:01:43;949.0;;;7.4;91.1
40013;BME280;37387;42.672;23.334;2023-02-20T05:04:43;949.0;;;7.5;88.7
40013;BME280;37387;42.672;23.334;2023-02-20T05:07:43;949.1;;;7.4;87.1
40013;BME280;37387;42.672;23.334;2023-02-20T05:30:43;949.3;;;7.5;80.5
40013;BME280;37387;42.672;23.334;2023-02-20T05:31:43;949.3;;;7.7;80.3
40013;BME280;37387;42.672;23.334;2023-02-20T05:32:43;949.3;;;7.9;79.4
40013;BME280;37387;42.672;23.334;2023-02-20T05:33:43;949.4;;;8.2;76.3
40013;BME280;37387;42.672;23.334;2023-02-20T05:34:44;949.4;;;8.4;76.3
40013;BME280;37387;42.672;23.334;2023-02-20T05:35:43;949.4;;;8.5;74.8
40013;BME280;37387;42.672;23.334;2023-02-20T05:36:43;949.5;;;8.8;73.8
40013;BME280;37387;42.672;23.334;2023-02-20T05:37:43;949.5;;;9.1;71.0
40013;BME280;37387;42.672;23.334;2023-02-20T05:38:43;949.5;;;9.4;71.0
40013;BME280;37387;42.672;23.334;2023-02-20T05:39:44;949.6;;;9.6;69.6
40013;BME280;37387;42.672;23.334;2023-02-20T05:40:44;949.7;;;9.7;67.4
40013;BME280;37387;42.672;23.334;2023-02-20T05:41:43;949.7;;;9.9;67.4
40013;BME280;37387;42.672;23.334;2023-02-20T05:42:43;949.7;;;10.0;66.5
40013;BME280;37387;42.672;23.334;2023-02-20T05:43:44;949.6;;;9.9;66.6
40013;BME280;37387;42.672;23.334;2023-02-20T05:44:44;949.6;;;10.0;66.6
40013;BME280;37387;42.672;23.334;2023-02-20T05:45:44;949.7;;;10.4;66.4
40013;BME280;37387;42.672;23.334;2023-02-20T05:47:43;949.7;;;10.2;64.6
40013;BME280;37387;42.672;23.334;2023-02-20T05:48:47;949.6;;;10.4;65.3
40013;BME280;37387;42.672;23.334;2023-02-20T05:50:43;949.7;;;10.5;65.0
40013;BME280;37387;42.672;23.334;2023-02-20T05:51:43;949.6;;;10.7;64.6
40013;BME280;37387;42.672;23.334;2023-02-20T05:52:43;949.7;;;10.9;63.8
40013;BME280;37387;42.672;23.334;2023-02-20T05:53:43;949.6;;;10.8;63.7
40013;BME280;37387;42.672;23.334;2023-02-20T05:54:44;949.7;;;10.6;64.6
40013;BME280;37387;42.672;23.334;2023-02-20T05:55:43;949.7;;;10.9;64.6
40013;BME280;37387;42.672;23.334;2023-02-20T05:56:44;949.7;;;11.1;63.3
40013;BME280;37387;42.672;23.334;2023-02-20T05:57:43;949.7;;;11.4;62.8
40013;BME280;37387;42.672;23.334;2023-02-20T05:58:44;949.6;;;11.0;63.0
40013;BME280;37387;42.672;23.334;2023-02-20T05:59:43;949.6;;;10.9;63.0
40013;BME280;37387;42.672;23.334;2023-02-20T06:00:43;949.6;;;11.2;62.2
40013;BME280;37387;42.672;23.334;2023-02-20T06:01:44;949.6;;;11.5;61.1
40013;BME280;37387;42.672;23.334;2023-02-20T06:02:43;949.6;;;11.1;62.0
40013;BME280;37387;42.672;23.334;2023-02-20T06:03:43;949.6;;;10.8;62.0
40013;BME280;37387;42.672;23.334;2023-02-20T06:04:43;949.6;;;11.0;63.4
40013;BME280;37387;42.672;23.334;2023-02-20T06:05:43;949.6;;;11.1;62.7
40013;BME280;37387;42.672;23.334;2023-02-20T06:07:43;949.8;;;10.9;62.1
40013;BME280;37387;42.672;23.334;2023-02-20T06:08:44;949.7;;;11.0;62.7
40013;BME280;37387;42.672;23.334;2023-02-20T06:09:43;949.7;;;10.9;62.4
40013;BME280;37387;42.672;23.334;2023-02-20T06:11:47;949.8;;;11.1;62.4
40013;BME280;37387;42.672;23.334;2023-02-20T06:12:44;949.8;;;11.2;61.3
40013;BME280;37387;42.672;23.334;2023-02-20T06:13:44;949.7;;;11.1;60.3
40013;BME280;37387;42.672;23.334;2023-02-20T06:15:43;949.8;;;11.0;59.9
40013;BME280;37387;42.672;23.334;2023-02-20T06:16:44;949.8;;;10.6;59.4
40013;BME280;37387;42.672;23.334;2023-02-20T06:17:44;949.8;;;10.4;59.2
40013;BME280;37387;42.672;23.334;2023-02-20T06:19:43;949.8;;;10.6;59.6
40013;BME280;37387;42.672;23.334;2023-02-20T06:20:44;949.7;;;10.5;59.2
40013;BME280;37387;42.672;23.334;2023-02-20T06:23:43;949.8;;;10.6;59.3
40013;BME280;37387;42.672;23.334;2023-02-20T06:24:44;949.7;;;10.9;59.3
40013;BME280;37387;42.672;23.334;2023-02-20T06:25:43;949.8;;;11.4;58.3
40013;BME280;37387;42.672;23.334;2023-02-20T06:26:44;949.8;;;11.7;57.2
40013;BME280;37387;42.672;23.334;2023-02-20T06:27:43;949.8;;;12.2;55.8
40013;BME280;37387;42.672;23.334;2023-02-20T06:28:44;949.9;;;12.5;53.6
40013;BME280;37387;42.672;23.334;2023-02-20T06:29:45;949.9;;;12.8;53.6
40013;BME280;37387;42.672;23.334;2023-02-20T06:30:43;949.9;;;13.1;52.4
40013;BME280;37387;42.672;23.334;2023-02-20T06:31:43;949.9;;;12.7;52.1
40013;BME280;37387;42.672;23.334;2023-02-20T06:32:43;949.9;;;12.5;52.6
40013;BME280;37387;42.672;23.334;2023-02-20T06:33:43;949.9;;;12.7;52.6
40013;BME280;37387;42.672;23.334;2023-02-20T06:34:44;950.0;;;12.6;52.9
40013;BME280;37387;42.672;23.334;2023-02-20T06:35:43;950.0;;;12.7;52.9
40013;BME280;37387;42.672;23.334;2023-02-20T06:36:44;950.0;;;12.6;53.0
40013;BME280;37387;42.672;23.334;2023-02-20T06:37:43;949.9;;;12.1;52.7
40013;BME280;37387;42.672;23.334;2023-02-20T06:38:43;949.9;;;12.2;53.8
40013;BME280;37387;42.672;23.334;2023-02-20T06:39:43;950.0;;;12.6;53.7
40013;BME280;37387;42.672;23.334;2023-02-20T06:40:43;950.0;;;13.2;52.4
40013;BME280;37387;42.672;23.334;2023-02-20T06:41:43;950.0;;;13.8;49.6
40013;BME280;37387;42.672;23.334;2023-02-20T06:42:43;950.0;;;14.1;49.6
40013;BME280;37387;42.672;23.334;2023-02-20T06:43:43;950.0;;;14.4;48.5
40013;BME280;37387;42.672;23.334;2023-02-20T06:44:43;949.9;;;14.1;47.8
40013;BME280;37387;42.672;23.334;2023-02-20T06:45:44;950.0;;;13.0;47.5
40013;BME280;37387;42.672;23.334;2023-02-20T06:46:43;950.0;;;12.4;48.8
40013;BME280;37387;42.672;23.334;2023-02-20T06:47:43;950.0;;;11.8;51.9
40013;BME280;37387;42.672;23.334;2023-02-20T06:48:44;950.0;;;11.1;51.9
40013;BME280;37387;42.672;23.334;2023-02-20T06:49:43;949.9;;;10.9;53.8
40013;BME280;37387;42.672;23.334;2023-02-20T06:50:43;950.1;;;10.7;54.9
40013;BME280;37387;42.672;23.334;2023-02-20T06:51:43;949.9;;;10.5;55.7
40013;BME280;37387;42.672;23.334;2023-02-20T06:52:43;949.9;;;10.3;56.2
40013;BME280;37387;42.672;23.334;2023-02-20T06:53:43;949.9;;;10.2;57.1
40013;BME280;37387;42.672;23.334;2023-02-20T06:54:43;950.1;;;10.3;57.7
40013;BME280;37387;42.672;23.334;2023-02-20T06:55:43;949.9;;;10.2;58.0
40013;BME280;37387;42.672;23.334;2023-02-20T06:56:43;950.0;;;10.1;58.5
40013;BME280;37387;42.672;23.334;2023-02-20T06:57:43;950.0;;;9.9;58.8
40013;BME280;37387;42.672;23.334;2023-02-20T06:58:44;950.0;;;9.5;60.5
40013;BME280;37387;42.672;23.334;2023-02-20T06:59:43;950.0;;;9.6;60.5
40013;BME280;37387;42.672;23.334;2023-02-20T07:00:43;950.0;;;9.7;61.1
40013;BME280;37387;42.672;23.334;2023-02-20T07:01:43;950.1;;;9.6;61.2
40013;BME280;37387;42.672;23.334;2023-02-20T07:02:43;950.0;;;9.7;61.2
40013;BME280;37387;42.672;23.334;2023-02-20T07:03:45;950.0;;;10.0;61.1
40013;BME280;37387;42.672;23.334;2023-02-20T07:04:46;950.0;;;10.1;60.5
40013;BME280;37387;42.672;23.334;2023-02-20T07:05:43;950.0;;;10.6;59.4
40013;BME280;37387;42.672;23.334;2023-02-20T07:06:43;950.1;;;10.9;56.7
40013;BME280;37387;42.672;23.334;2023-02-20T07:07:43;950.0;;;11.0;56.7
40013;BME280;37387;42.672;23.334;2023-02-20T07:08:43;949.9;;;11.1;55.2
40013;BME280;37387;42.672;23.334;2023-02-20T07:09:43;950.0;;;11.2;55.2
40013;BME280;37387;42.672;23.334;2023-02-20T07:10:43;950.1;;;11.5;54.6
40013;BME280;37387;42.672;23.334;2023-02-20T07:11:45;950.0;;;12.1;52.1
40013;BME280;37387;42.672;23.334;2023-02-20T07:13:44;950.1;;;12.4;51.7
40013;BME280;37387;42.672;23.334;2023-02-20T07:14:43;950.0;;;12.1;50.9
40013;BME280;37387;42.672;23.334;2023-02-20T07:15:43;950.0;;;11.9;51.1
40013;BME280;37387;42.672;23.334;2023-02-20T07:17:43;950.1;;;11.7;51.5
40013;BME280;37387;42.672;23.334;2023-02-20T07:18:43;950.1;;;11.9;51.5
40013;BME280;37387;42.672;23.334;2023-02-20T07:19:43;950.0;;;11.8;51.0
40013;BME280;37387;42.672;23.334;2023-02-20T07:20:44;950.2;;;12.0;50.5
40013;BME280;37387;42.672;23.334;2023-02-20T07:21:45;950.2;;;12.2;50.5
40013;BME280;37387;42.672;23.334;2023-02-20T07:22:48;950.1;;;12.1;49.0
40013;BME280;37387;42.672;23.334;2023-02-20T07:23:44;950.1;;;12.6;49.0
40013;BME280;37387;42.672;23.334;2023-02-20T07:24:43;950.1;;;12.8;48.3
40013;BME280;37387;42.672;23.334;2023-02-20T07:25:43;950.1;;;12.6;47.5
40013;BME280;37387;42.672;23.334;2023-02-20T07:26:43;950.2;;;12.4;47.9
40013;BME280;37387;42.672;23.334;2023-02-20T07:27:43;950.1;;;11.9;48.2
40013;BME280;37387;42.672;23.334;2023-02-20T07:28:43;950.1;;;12.0;48.2
40013;BME280;37387;42.672;23.334;2023-02-20T07:30:43;950.2;;;11.4;48.2
40013;BME280;37387;42.672;23.334;2023-02-20T07:31:43;950.1;;;11.2;49.9
40013;BME280;37387;42.672;23.334;2023-02-20T07:32:43;950.1;;;11.5;49.9
40013;BME280;37387;42.672;23.334;2023-02-20T07:33:43;950.2;;;11.8;49.1
40013;BME280;37387;42.672;23.334;2023-02-20T07:35:44;950.2;;;11.5;48.7
40013;BME280;37387;42.672;23.334;2023-02-20T07:38:51;950.2;;;11.1;48.5
40013;BME280;37387;42.672;23.334;2023-02-20T07:39:43;950.0;;;11.0;49.1
40013;BME280;37387;42.672;23.334;2023-02-20T07:40:43;950.3;;;10.9;49.8
40013;BME280;37387;42.672;23.334;2023-02-20T07:41:44;950.2;;;11.0;49.9
40013;BME280;37387;42.672;23.334;2023-02-20T07:42:44;950.2;;;11.3;49.9
40013;BME280;37387;42.672;23.334;2023-02-20T07:43:44;950.2;;;11.4;49.1
40013;BME280;37387;42.672;23.334;2023-02-20T07:44:43;950.2;;;11.3;49.1
40013;BME280;37387;42.672;23.334;2023-02-20T07:46:43;950.3;;;11.4;48.7
40013;BME280;37387;42.672;23.334;2023-02-20T07:47:43;950.4;;;11.6;48.7
40013;BME280;37387;42.672;23.334;2023-02-20T07:48:43;950.4;;;11.4;48.1
40013;BME280;37387;42.672;23.334;2023-02-20T07:49:43;950.4;;;11.5;48.2
40013;BME280;37387;42.672;23.334;2023-02-20T07:50:44;950.4;;;11.4;48.1
40013;BME280;37387;42.672;23.334;2023-02-20T07:52:44;950.4;;;11.6;48.3
40013;BME280;37387;42.672;23.334;2023-02-20T07:54:43;950.5;;;11.4;48.1
40013;BME280;37387;42.672;23.334;2023-02-20T07:55:43;950.5;;;11.8;48.1
40013;BME280;37387;42.672;23.334;2023-02-20T07:56:43;950.3;;;12.2;46.5
40013;BME280;37387;42.672;23.334;2023-02-20T07:57:44;950.4;;;12.6;45.9
40013;BME280;37387;42.672;23.334;2023-02-20T07:58:44;950.4;;;12.8;45.9
40013;BME280;37387;42.672;23.334;2023-02-20T07:59:43;950.4;;;13.2;45.1
40013;BME280;37387;42.672;23.334;2023-02-20T08:00:43;950.6;;;13.5;44.7
40013;BME280;37387;42.672;23.334;2023-02-20T08:01:43;950.6;;;13.4;43.7
40013;BME280;37387;42.672;23.334;2023-02-20T08:02:44;950.7;;;13.5;43.7
40013;BME280;37387;42.672;23.334;2023-02-20T08:03:44;950.7;;;13.1;43.5
40013;BME280;37387;42.672;23.334;2023-02-20T08:04:43;950.7;;;13.6;43.3
40013;BME280;37387;42.672;23.334;2023-02-20T08:05:44;950.7;;;13.9;42.5
40013;BME280;37387;42.672;23.334;2023-02-20T08:06:43;950.7;;;14.3;42.5
40013;BME280;37387;42.672;23.334;2023-02-20T08:07:44;950.6;;;14.6;41.9
40013;BME280;37387;42.672;23.334;2023-02-20T08:08:46;950.6;;;15.0;41.3
40013;BME280;37387;42.672;23.334;2023-02-20T08:10:43;950.6;;;14.2;40.1
40013;BME280;37387;42.672;23.334;2023-02-20T08:11:43;950.7;;;14.5;40.8
40013;BME280;37387;42.672;23.334;2023-02-20T08:12:44;950.6;;;14.3;40.6
40013;BME280;37387;42.672;23.334;2023-02-20T08:13:44;950.6;;;14.6;40.7
40013;BME280;37387;42.672;23.334;2023-02-20T08:14:43;950.6;;;14.7;40.2
40013;BME280;37387;42.672;23.334;2023-02-20T08:15:43;950.8;;;14.8;40.1
40013;BME280;37387;42.672;23.334;2023-02-20T08:16:43;950.8;;;14.4;40.1
40013;BME280;37387;42.672;23.334;2023-02-20T08:17:43;950.6;;;13.9;40.5
40013;BME280;37387;42.672;23.334;2023-02-20T08:18:43;950.8;;;14.2;41.3
40013;BME280;37387;42.672;23.334;2023-02-20T08:19:43;950.8;;;14.4;41.2
40013;BME280;37387;42.672;23.334;2023-02-20T08:20:43;950.7;;;13.9;40.5
40013;BME280;37387;42.672;23.334;2023-02-20T08:22:44;950.7;;;13.6;41.4
40013;BME280;37387;42.672;23.334;2023-02-20T08:23:43;950.5;;;13.2;41.6
40013;BME280;37387;42.672;23.334;2023-02-20T08:24:43;950.7;;;13.9;42.1
40013;BME280;37387;42.672;23.334;2023-02-20T08:26:44;950.7;;;14.1;41.6
40013;BME280;37387;42.672;23.334;2023-02-20T08:27:44;950.6;;;14.6;41.1
40013;BME280;37387;42.672;23.334;2023-02-20T08:28:45;950.6;;;14.1;40.8
40013;BME280;37387;42.672;23.334;2023-02-20T08:29:44;950.6;;;13.9;40.8
40013;BME280;37387;42.672;23.334;2023-02-20T08:30:43;950.7;;;14.1;41.3
40013;BME280;37387;42.672;23.334;2023-02-20T08:31:43;950.7;;;13.8;40.9
40013;BME280;37387;42.672;23.334;2023-02-20T08:32:43;950.6;;;13.7;41.2
40013;BME280;37387;42.672;23.334;2023-02-20T08:33:43;950.4;;;13.6;41.2
40013;BME280;37387;42.672;23.334;2023-02-20T08:34:43;950.6;;;13.8;41.6
40013;BME280;37387;42.672;23.334;2023-02-20T08:35:43;950.5;;;14.1;41.3
40013;BME280;37387;42.672;23.334;2023-02-20T08:36:43;950.6;;;14.0;40.9
40013;BME280;37387;42.672;23.334;2023-02-20T08:37:43;950.6;;;14.3;40.8
40013;BME280;37387;42.672;23.334;2023-02-20T08:38:43;950.6;;;14.4;40.8
40013;BME280;37387;42.672;23.334;2023-02-20T08:39:43;950.6;;;14.1;40.5
40013;BME280;37387;42.672;23.334;2023-02-20T08:40:43;950.6;;;13.5;41.7
40013;BME280;37387;42.672;23.334;2023-02-20T08:41:44;950.6;;;13.6;41.7
40013;BME280;37387;42.672;23.334;2023-02-20T08:42:44;950.6;;;13.5;41.6
40013;BME280;37387;42.672;23.334;2023-02-20T08:43:43;950.6;;;13.4;41.9
40013;BME280;37387;42.672;23.334;2023-02-20T08:44:44;950.5;;;13.7;41.8
40013;BME280;37387;42.672;23.334;2023-02-20T08:46:45;950.6;;;12.9;41.7
40013;BME280;37387;42.672;23.334;2023-02-20T08:47:43;950.4;;;13.1;43.2
40013;BME280;37387;42.672;23.334;2023-02-20T08:48:43;950.6;;;13.6;43.2
40013;BME280;37387;42.672;23.334;2023-02-20T08:49:45;950.6;;;13.8;42.3
40013;BME280;37387;42.672;23.334;2023-02-20T08:51:44;950.6;;;13.6;41.9
40013;BME280;37387;42.672;23.334;2023-02-20T08:52:44;950.6;;;13.7;42.2
40013;BME280;37387;42.672;23.334;2023-02-20T08:53:43;950.6;;;13.4;42.1
40013;BME280;37387;42.672;23.334;2023-02-20T08:54:44;950.6;;;13.1;42.6
40013;BME280;37387;42.672;23.334;2023-02-20T08:56:43;950.7;;;13.2;43.0
40013;BME280;37387;42.672;23.334;2023-02-20T08:57:43;950.6;;;13.5;43.1
40013;BME280;37387;42.672;23.334;2023-02-20T08:58:43;950.6;;;14.0;42.5
40013;BME280;37387;42.672;23.334;2023-02-20T08:59:44;950.5;;;14.2;41.2
40013;BME280;37387;42.672;23.334;2023-02-20T09:00:43;950.5;;;14.5;40.6
40013;BME280;37387;42.672;23.334;2023-02-20T09:01:43;950.6;;;13.6;40.6
40013;BME280;37387;42.672;23.334;2023-02-20T09:03:43;950.5;;;13.9;41.7
40013;BME280;37387;42.672;23.334;2023-02-20T09:04:43;950.7;;;14.1;41.1
40013;BME280;37387;42.672;23.334;2023-02-20T09:05:43;950.6;;;14.0;41.1
40013;BME280;37387;42.672;23.334;2023-02-20T09:06:43;950.7;;;13.6;41.2
40013;BME280;37387;42.672;23.334;2023-02-20T09:07:43;950.7;;;13.7;41.0
40013;BME280;37387;42.672;23.334;2023-02-20T09:09:43;950.5;;;14.1;40.7
40013;BME280;37387;42.672;23.334;2023-02-20T09:10:43;950.6;;;14.0;40.4
40013;BME280;37387;42.672;23.334;2023-02-20T09:12:44;950.6;;;13.8;40.3
40013;BME280;37387;42.672;23.334;2023-02-20T09:13:44;950.6;;;13.6;40.4
40013;BME280;37387;42.672;23.334;2023-02-20T09:14:44;950.5;;;13.5;40.4
40013;BME280;37387;42.672;23.334;2023-02-20T09:15:43;950.7;;;13.4;40.7
40013;BME280;37387;42.672;23.334;2023-02-20T09:16:43;950.5;;;13.7;40.7
40013;BME280;37387;42.672;23.334;2023-02-20T09:17:44;950.5;;;13.9;40.7
40013;BME280;37387;42.672;23.334;2023-02-20T09:18:44;950.5;;;13.8;40.8
40013;BME280;37387;42.672;23.334;2023-02-20T09:19:43;950.5;;;13.9;40.8
40013;BME280;37387;42.672;23.334;2023-02-20T09:20:43;950.5;;;14.1;40.6
40013;BME280;37387;42.672;23.334;2023-02-20T09:21:44;950.5;;;14.3;40.6
40013;BME280;37387;42.672;23.334;2023-02-20T09:22:43;950.5;;;14.5;40.5
40013;BME280;37387;42.672;23.334;2023-02-20T09:23:44;950.4;;;14.2;39.9
40013;BME280;37387;42.672;23.334;2023-02-20T09:24:45;950.6;;;14.0;40.0
40013;BME280;37387;42.672;23.334;2023-02-20T09:25:43;950.5;;;13.4;40.8
40013;BME280;37387;42.672;23.334;2023-02-20T09:26:43;950.5;;;13.7;40.8
40013;BME280;37387;42.672;23.334;2023-02-20T09:27:43;950.5;;;13.2;41.2
40013;BME280;37387;42.672;23.334;2023-02-20T09:29:43;950.5;;;13.1;41.6
40013;BME280;37387;42.672;23.334;2023-02-20T09:30:43;950.6;;;12.8;41.5
40013;BME280;37387;42.672;23.334;2023-02-20T09:31:43;950.6;;;13.1;42.2
40013;BME280;37387;42.672;23.334;2023-02-20T09:32:43;950.4;;;13.2;41.8
40013;BME280;37387;42.672;23.334;2023-02-20T09:33:44;950.5;;;13.5;41.7
40013;BME280;37387;42.672;23.334;2023-02-20T09:34:43;950.4;;;13.4;41.5
40013;BME280;37387;42.672;23.334;2023-02-20T09:35:43;950.4;;;13.1;41.5
40013;BME280;37387;42.672;23.334;2023-02-20T09:36:43;950.2;;;13.2;41.8
40013;BME280;37387;42.672;23.334;2023-02-20T09:37:43;950.5;;;13.4;41.8
40013;BME280;37387;42.672;23.334;2023-02-20T09:38:43;950.4;;;13.6;41.4
40013;BME280;37387;42.672;23.334;2023-02-20T09:41:49;950.5;;;13.5;41.2
40013;BME280;37387;42.672;23.334;2023-02-20T09:42:48;950.6;;;13.3;41.2
40013;BME280;37387;42.672;23.334;2023-02-20T09:43:44;950.5;;;13.1;41.8
40013;BME280;37387;42.672;23.334;2023-02-20T09:44:45;950.5;;;13.0;42.5
40013;BME280;37387;42.672;23.334;2023-02-20T09:45:46;950.4;;;12.9;42.7
40013;BME280;37387;42.672;23.334;2023-02-20T09:46:44;950.5;;;13.1;42.8
40013;BME280;37387;42.672;23.334;2023-02-20T09:47:48;950.5;;;13.3;42.8
40013;BME280;37387;42.672;23.334;2023-02-20T09:48:47;950.5;;;13.5;42.2
40013;BME280;37387;42.672;23.334;2023-02-20T09:49:43;950.5;;;13.4;42.4
40013;BME280;37387;42.672;23.334;2023-02-20T09:51:44;950.5;;;13.6;42.1
40013;BME280;37387;42.672;23.334;2023-02-20T09:52:44;950.5;;;13.5;42.1
40013;BME280;37387;42.672;23.334;2023-02-20T09:53:46;950.6;;;13.2;42.0
40013;BME280;37387;42.672;23.334;2023-02-20T09:54:45;950.5;;;13.4;42.6
40013;BME280;37387;42.672;23.334;2023-02-20T09:55:43;950.5;;;13.5;42.1
40013;BME280;37387;42.672;23.334;2023-02-20T09:56:44;950.5;;;13.7;42.0
40013;BME280;37387;42.672;23.334;2023-02-20T09:57:44;950.5;;;14.0;42.0
40013;BME280;37387;42.672;23.334;2023-02-20T09:58:44;950.5;;;14.2;41.1
40013;BME280;37387;42.672;23.334;2023-02-20T09:59:44;950.6;;;13.8;40.5
40013;BME280;37387;42.672;23.334;2023-02-20T10:00:43;950.6;;;14.1;40.8
40013;BME280;37387;42.672;23.334;2023-02-20T10:02:45;950.6;;;14.4;40.3
40013;BME280;37387;42.672;23.334;2023-02-20T10:03:48;950.6;;;14.5;40.3
40013;BME280;37387;42.672;23.334;2023-02-20T10:04:44;950.7;;;14.8;39.7
40013;BME280;37387;42.672;23.334;2023-02-20T10:06:44;950.6;;;14.7;39.5
40013;BME280;37387;42.672;23.334;2023-02-20T10:07:43;950.6;;;14.8;39.5
40013;BME280;37387;42.672;23.334;2023-02-20T10:08:44;950.7;;;14.6;39.2
40013;BME280;37387;42.672;23.334;2023-02-20T10:10:43;950.6;;;14.7;38.9
40013;BME280;37387;42.672;23.334;2023-02-20T10:11:45;950.5;;;14.4;38.9
40013;BME280;37387;42.672;23.334;2023-02-20T10:12:44;950.5;;;14.5;38.9
40013;BME280;37387;42.672;23.334;2023-02-20T10:13:47;950.6;;;14.4;38.3
40013;BME280;37387;42.672;23.334;2023-02-20T10:14:44;950.5;;;14.3;38.1
40013;BME280;37387;42.672;23.334;2023-02-20T10:16:45;950.5;;;14.2;38.6
40013;BME280;37387;42.672;23.334;2023-02-20T10:18:44;950.5;;;14.0;38.5
40013;BME280;37387;42.672;23.334;2023-02-20T10:19:46;950.5;;;13.7;38.9
40013;BME280;37387;42.672;23.334;2023-02-20T10:20:44;950.4;;;13.6;38.8
40013;BME280;37387;42.672;23.334;2023-02-20T10:21:44;950.4;;;13.5;38.9
40013;BME280;37387;42.672;23.334;2023-02-20T10:22:47;950.2;;;13.2;39.0
40013;BME280;37387;42.672;23.334;2023-02-20T10:23:45;950.4;;;13.7;39.2
40013;BME280;37387;42.672;23.334;2023-02-20T10:24:47;950.3;;;13.4;38.9
40013;BME280;37387;42.672;23.334;2023-02-20T10:26:45;950.2;;;13.7;39.3
40013;BME280;37387;42.672;23.334;2023-02-20T10:28:44;950.2;;;13.9;38.8
40013;BME280;37387;42.672;23.334;2023-02-20T10:29:44;950.2;;;13.7;38.6
40013;BME280;37387;42.672;23.334;2023-02-20T10:30:45;950.2;;;14.1;38.8
40013;BME280;37387;42.672;23.334;2023-02-20T10:31:44;950.2;;;14.2;38.3
40013;BME280;37387;42.672;23.334;2023-02-20T10:32:44;950.1;;;14.0;37.8
40013;BME280;37387;42.672;23.334;2023-02-20T10:33:44;950.1;;;14.2;37.8
40013;BME280;37387;42.672;23.334;2023-02-20T10:34:46;950.1;;;14.3;37.3
40013;BME280;37387;42.672;23.334;2023-02-20T10:35:44;950.2;;;14.8;37.5
40013;BME280;37387;42.672;23.334;2023-02-20T10:36:44;950.2;;;15.2;36.7
40013;BME280;37387;42.672;23.334;2023-02-20T10:37:45;950.2;;;15.4;35.7